createdAt,value
2023-02-11T00:00:50.024Z,6.60
2023-02-11T00:04:17.848Z,6.32
2023-02-11T00:07:51.561Z,6.22
2023-02-11T00:11:16.560Z,6.75
2023-02-11T00:14:39.082Z,5.80
2023-02-11T00:18:01.768Z,4.88
2023-02-11T00:21:26.408Z,5.47
2023-02-11T00:24:49.694Z,6.80
2023-02-11T00:28:37.041Z,5.63
2023-02-11T00:32:05.221Z,6.15
2023-02-11T00:35:30.244Z,4.95
2023-02-11T00:38:57.184Z,5.28
2023-02-11T00:42:19.633Z,5.22
2023-02-11T00:45:42.263Z,5.32
2023-02-11T00:49:04.606Z,4.93
2023-02-11T00:52:27.144Z,4.60
2023-02-11T00:55:53.909Z,4.47
2023-02-11T00:59:17.299Z,5.38
2023-02-11T01:02:40.675Z,5.20
2023-02-11T01:06:02.855Z,5.65
2023-02-11T01:09:24.947Z,7.03
2023-02-11T01:12:47.671Z,7.82
2023-02-11T01:16:12.990Z,6.38
2023-02-11T01:19:38.344Z,5.97
2023-02-11T01:23:02.433Z,6.13
2023-02-11T01:26:25.284Z,5.32
2023-02-11T01:29:50.286Z,5.45
2023-02-11T01:33:13.833Z,6.20
2023-02-11T01:36:36.360Z,6.18
2023-02-11T01:40:04.067Z,5.72
2023-02-11T01:43:30.919Z,5.70
2023-02-11T01:47:06.957Z,6.22
2023-02-11T01:50:30.116Z,5.20
2023-02-11T01:54:25.676Z,5.40
2023-02-11T01:57:57.629Z,4.78
2023-02-11T02:01:23.997Z,5.07
2023-02-11T02:04:55.927Z,4.78
2023-02-11T02:08:33.085Z,4.63
2023-02-11T02:11:57.161Z,4.80
2023-02-11T02:15:30.038Z,5.07
2023-02-11T02:19:28.993Z,4.03
2023-02-11T02:23:05.215Z,4.68
2023-02-11T02:27:03.272Z,4.30
2023-02-11T02:30:46.585Z,5.57
2023-02-11T02:34:29.934Z,4.43
2023-02-11T02:38:09.549Z,5.22
2023-02-11T02:41:35.580Z,4.63
2023-02-11T02:44:59.230Z,5.05
2023-02-11T02:48:31.035Z,5.15
2023-02-11T02:56:50.173Z,5.03
2023-02-11T03:00:21.037Z,5.10
2023-02-11T03:04:04.135Z,4.70
2023-02-11T03:07:52.350Z,4.30
2023-02-11T03:11:23.978Z,4.45
2023-02-11T03:14:47.378Z,5.05
2023-02-11T03:18:15.078Z,4.55
2023-02-11T03:21:44.211Z,4.30
2023-02-11T03:25:07.506Z,4.50
2023-02-11T03:28:42.145Z,4.50
2023-02-11T03:33:05.797Z,4.38
2023-02-11T03:36:39.736Z,4.70
2023-02-11T03:40:09.667Z,4.40
2023-02-11T03:43:37.959Z,4.22
2023-02-11T03:47:03.052Z,5.15
2023-02-11T03:50:27.371Z,5.80
2023-02-11T03:54:05.724Z,5.43
2023-02-11T03:57:30.341Z,5.72
2023-02-11T04:00:53.552Z,5.28
2023-02-11T04:04:16.954Z,5.60
2023-02-11T04:07:39.422Z,5.75
2023-02-11T04:11:07.008Z,5.30
2023-02-11T04:14:29.325Z,6.15
2023-02-11T04:17:54.839Z,5.68
2023-02-11T04:21:17.188Z,6.43
2023-02-11T04:24:40.090Z,5.60
2023-02-11T04:28:05.901Z,5.72
2023-02-11T04:31:29.011Z,5.00
2023-02-11T04:34:52.218Z,4.90
2023-02-11T04:38:15.000Z,6.20
2023-02-11T04:41:38.189Z,6.93
2023-02-11T04:45:01.348Z,6.25
2023-02-11T04:48:23.738Z,9.40
2023-02-11T04:51:49.215Z,8.15
2023-02-11T04:55:12.641Z,7.80
2023-02-11T04:58:35.232Z,6.45
2023-02-11T05:01:57.756Z,5.75
2023-02-11T05:05:21.594Z,5.45
2023-02-11T05:08:43.972Z,5.15
2023-02-11T05:12:06.707Z,3.88
2023-02-11T05:15:29.670Z,6.55
2023-02-11T05:18:54.082Z,9.57
2023-02-11T05:22:16.462Z,10.30
2023-02-11T05:25:46.125Z,11.88
2023-02-11T05:29:08.781Z,8.02
2023-02-11T05:32:32.054Z,9.85
2023-02-11T05:36:01.250Z,12.27
2023-02-11T05:39:26.252Z,10.27
2023-02-11T05:42:48.590Z,8.85
2023-02-11T05:46:11.407Z,9.07
2023-02-11T05:50:04.890Z,7.85
2023-02-11T05:53:27.906Z,8.35
2023-02-11T05:56:59.631Z,7.97
2023-02-11T06:00:21.957Z,8.00
2023-02-11T06:03:44.123Z,9.55
2023-02-11T06:07:21.954Z,8.48
2023-02-11T06:10:58.362Z,7.70
2023-02-11T06:14:31.461Z,6.47
2023-02-11T06:18:07.480Z,6.82
2023-02-11T06:21:44.284Z,6.78
2023-02-11T06:25:07.812Z,5.07
2023-02-11T06:28:36.646Z,5.60
2023-02-11T06:31:59.517Z,6.20
2023-02-11T06:35:27.571Z,7.63
2023-02-11T06:38:52.055Z,7.18
2023-02-11T06:42:14.605Z,7.03
2023-02-11T06:45:43.955Z,5.70
2023-02-11T06:49:06.487Z,6.68
2023-02-11T06:52:29.165Z,6.00
2023-02-11T06:55:51.914Z,5.63
2023-02-11T06:59:18.802Z,5.97
2023-02-11T07:02:41.393Z,6.82
2023-02-11T07:06:05.980Z,5.18
2023-02-11T07:09:29.594Z,6.40
2023-02-11T07:12:51.631Z,7.50
2023-02-11T07:16:17.934Z,7.30
2023-02-11T07:19:47.386Z,8.10
2023-02-11T07:23:10.518Z,9.10
2023-02-11T07:26:33.392Z,9.85
2023-02-11T07:29:58.544Z,12.38
2023-02-11T07:33:47.209Z,11.85
2023-02-11T07:37:11.220Z,10.60
2023-02-11T07:40:34.976Z,11.60
2023-02-11T07:44:04.472Z,13.40
2023-02-11T07:47:27.863Z,11.18
2023-02-11T07:50:53.639Z,14.43
2023-02-11T07:54:16.480Z,19.48
2023-02-11T07:57:39.331Z,20.45
2023-02-11T08:01:08.030Z,19.15
2023-02-11T08:04:30.293Z,21.70
2023-02-11T08:07:54.961Z,22.67
2023-02-11T08:11:23.297Z,23.33
2023-02-11T08:14:45.941Z,21.67
2023-02-11T08:18:08.761Z,21.85
2023-02-11T08:21:35.101Z,21.92
2023-02-11T08:24:58.749Z,24.15
2023-02-11T08:28:22.077Z,25.98
2023-02-11T08:31:49.860Z,33.17
2023-02-11T08:35:12.988Z,34.58
2023-02-11T08:38:40.239Z,39.60
2023-02-11T08:42:09.051Z,34.83
2023-02-11T08:45:35.419Z,33.65
2023-02-11T08:49:01.059Z,34.90
2023-02-11T08:52:24.433Z,40.80
2023-02-11T08:55:52.323Z,42.42
2023-02-11T08:59:18.330Z,38.47
2023-02-11T09:02:42.158Z,37.42
2023-02-11T09:06:08.148Z,32.45
2023-02-11T09:09:34.430Z,31.63
2023-02-11T09:13:01.817Z,29.35
2023-02-11T09:16:32.465Z,27.77
2023-02-11T09:19:57.670Z,25.80
2023-02-11T09:23:21.722Z,24.27
2023-02-11T09:26:46.100Z,21.67
2023-02-11T09:30:15.196Z,23.17
2023-02-11T09:33:39.919Z,19.93
2023-02-11T09:37:02.903Z,21.67
2023-02-11T09:40:25.694Z,18.88
2023-02-11T09:43:49.549Z,19.00
2023-02-11T09:47:38.726Z,19.23
2023-02-11T09:51:29.877Z,18.25
2023-02-11T09:58:30.758Z,18.25
2023-02-11T10:02:05.311Z,17.10
2023-02-11T10:05:34.658Z,16.85
2023-02-11T10:09:32.055Z,17.35
2023-02-11T10:13:40.866Z,16.52
2023-02-11T10:17:29.700Z,15.68
2023-02-11T10:21:14.615Z,15.52
2023-02-11T10:24:39.894Z,17.65
2023-02-11T10:28:22.572Z,18.73
2023-02-11T10:31:48.042Z,18.65
2023-02-11T10:35:36.817Z,17.55
2023-02-11T10:39:23.574Z,16.83
2023-02-11T10:42:50.112Z,18.10
2023-02-11T10:46:35.249Z,19.45
2023-02-11T10:50:04.212Z,17.73
2023-02-11T10:53:27.286Z,17.55
2023-02-11T10:56:59.225Z,18.20
2023-02-11T11:00:38.059Z,16.83
2023-02-11T11:04:06.164Z,16.45
2023-02-11T11:07:31.893Z,17.60
2023-02-11T11:11:26.597Z,18.33
2023-02-11T11:15:30.820Z,18.23
2023-02-11T11:19:15.094Z,20.92
2023-02-11T11:22:39.365Z,18.13
2023-02-11T11:26:16.144Z,20.92
2023-02-11T11:29:50.896Z,18.88
2023-02-11T11:33:30.607Z,18.77
2023-02-11T11:37:03.104Z,19.67
2023-02-11T11:40:34.222Z,19.52
2023-02-11T11:44:24.356Z,19.75
2023-02-11T11:47:56.609Z,19.95
2023-02-11T11:51:19.991Z,18.70
2023-02-11T11:54:48.698Z,18.40
2023-02-11T11:58:24.019Z,18.92
2023-02-11T12:02:13.077Z,18.90
2023-02-11T12:05:47.422Z,18.52
2023-02-11T12:09:24.840Z,19.30
2023-02-11T12:13:32.806Z,19.17
2023-02-11T12:17:11.764Z,20.08
2023-02-11T12:20:59.190Z,6.13
2023-02-11T12:24:33.508Z,5.65
2023-02-11T12:28:14.913Z,5.35
2023-02-11T12:31:57.360Z,6.57
2023-02-11T12:35:29.596Z,6.15
2023-02-11T12:38:58.252Z,6.35
2023-02-11T12:42:53.013Z,5.22
2023-02-11T12:46:25.225Z,5.63
2023-02-11T12:50:25.425Z,5.15
2023-02-11T12:54:10.590Z,6.40
2023-02-11T12:57:35.145Z,5.45
2023-02-11T13:01:19.572Z,7.15
2023-02-11T13:04:50.570Z,11.05
2023-02-11T13:08:32.555Z,11.38
2023-02-11T13:12:21.075Z,11.90
2023-02-11T13:15:59.002Z,11.43
2023-02-11T13:19:24.298Z,11.43
2023-02-11T13:22:57.410Z,12.27
2023-02-11T13:26:36.708Z,11.68
2023-02-11T13:30:21.915Z,11.77
2023-02-11T13:33:50.741Z,11.02
2023-02-11T13:37:29.799Z,11.15
2023-02-11T13:41:13.392Z,10.38
2023-02-11T13:44:37.138Z,13.57
2023-02-11T13:48:05.639Z,13.77
2023-02-11T13:51:40.494Z,13.43
2023-02-11T13:55:23.663Z,13.57
2023-02-11T13:58:53.622Z,13.30
2023-02-11T14:02:50.673Z,14.52
2023-02-11T14:06:40.159Z,14.15
2023-02-11T14:10:03.420Z,14.18
2023-02-11T14:13:26.104Z,15.07
2023-02-11T14:16:58.410Z,14.20
2023-02-11T14:20:49.381Z,14.15
2023-02-11T14:24:13.258Z,14.75
2023-02-11T14:27:54.566Z,15.02
2023-02-11T14:31:46.009Z,16.02
2023-02-11T14:35:09.705Z,15.93
2023-02-11T14:39:06.408Z,14.98
2023-02-11T14:42:31.543Z,15.60
2023-02-11T14:46:00.287Z,14.25
2023-02-11T14:49:36.734Z,13.98
2023-02-11T14:53:06.604Z,19.58
2023-02-11T14:56:38.809Z,15.55
2023-02-11T15:00:06.624Z,15.90
2023-02-11T15:03:40.908Z,15.70
2023-02-11T15:07:12.234Z,14.82
2023-02-11T15:10:55.765Z,16.58
2023-02-11T15:14:27.942Z,15.05
2023-02-11T15:17:57.249Z,15.30
2023-02-11T15:24:44.840Z,16.25
2023-02-11T15:28:22.684Z,15.70
2023-02-11T15:31:45.497Z,17.13
2023-02-11T15:35:22.322Z,17.15
2023-02-11T15:38:45.324Z,17.77
2023-02-11T15:42:25.854Z,18.70
2023-02-11T15:46:00.102Z,15.93
2023-02-11T15:49:26.921Z,16.27
2023-02-11T15:52:50.877Z,16.05
2023-02-11T15:56:30.533Z,15.07
2023-02-11T16:00:22.332Z,15.85
2023-02-11T16:03:51.397Z,16.27
2023-02-11T16:07:47.680Z,15.68
2023-02-11T16:11:46.644Z,16.55
2023-02-11T16:15:29.125Z,17.65
2023-02-11T16:19:05.994Z,18.17
2023-02-11T16:22:35.752Z,16.48
2023-02-11T16:26:21.680Z,18.20
2023-02-11T16:29:47.492Z,17.70
2023-02-11T16:33:13.537Z,17.67
2023-02-11T16:36:39.375Z,18.73
2023-02-11T16:40:01.407Z,18.05
2023-02-11T16:43:24.183Z,17.52
2023-02-11T16:46:46.978Z,17.48
2023-02-11T16:50:13.303Z,18.85
2023-02-11T16:53:35.948Z,19.83
2023-02-11T16:57:02.501Z,17.63
2023-02-11T17:00:27.897Z,18.25
2023-02-11T17:03:54.572Z,18.02
2023-02-11T17:07:17.558Z,18.15
2023-02-11T17:10:43.437Z,19.13
2023-02-11T17:14:11.077Z,19.77
2023-02-11T17:17:34.108Z,18.17
2023-02-11T17:20:57.260Z,19.15
2023-02-11T17:24:22.721Z,18.80
2023-02-11T17:27:46.066Z,18.05
2023-02-11T17:31:09.800Z,19.73
2023-02-11T17:34:34.310Z,18.83
2023-02-11T17:37:58.796Z,19.58
2023-02-11T17:41:24.565Z,18.92
2023-02-11T17:44:52.431Z,17.92
2023-02-11T17:48:24.830Z,17.13
2023-02-11T17:51:50.249Z,17.48
2023-02-11T17:55:12.430Z,17.75
2023-02-11T17:58:34.544Z,16.23
2023-02-11T18:01:57.100Z,15.88
2023-02-11T18:05:20.131Z,15.82
2023-02-11T18:08:43.945Z,15.90
2023-02-11T18:12:10.907Z,17.77
2023-02-11T18:15:34.373Z,17.40
2023-02-11T18:19:02.994Z,15.43
2023-02-11T18:22:30.429Z,17.85
2023-02-11T18:25:54.957Z,16.23
2023-02-11T18:29:26.963Z,16.60
2023-02-11T18:32:55.583Z,16.70
2023-02-11T18:36:17.829Z,15.52
2023-02-11T18:39:43.982Z,16.65
2023-02-11T18:43:07.476Z,15.68
2023-02-11T18:46:38.354Z,15.48
2023-02-11T18:50:01.305Z,16.75
2023-02-11T18:53:25.661Z,15.23
2023-02-11T18:56:48.288Z,15.57
2023-02-11T19:00:11.984Z,15.00
2023-02-11T19:03:34.895Z,15.93
2023-02-11T19:06:57.593Z,19.27
2023-02-11T19:10:19.955Z,16.80
2023-02-11T19:13:42.646Z,17.42
2023-02-11T19:17:09.555Z,20.05
2023-02-11T19:20:38.301Z,17.08
2023-02-11T19:24:02.546Z,15.15
2023-02-11T19:27:24.749Z,16.95
2023-02-11T19:30:47.108Z,19.88
2023-02-11T19:34:11.927Z,16.77
2023-02-11T19:37:56.077Z,16.08
2023-02-11T19:41:23.664Z,15.48
2023-02-11T19:44:46.889Z,15.98
2023-02-11T19:48:13.052Z,16.05
2023-02-11T19:51:39.534Z,17.52
2023-02-11T19:55:02.354Z,26.00
2023-02-11T19:58:25.322Z,18.75
2023-02-11T20:01:49.462Z,17.33
2023-02-11T20:05:12.952Z,15.50
2023-02-11T20:08:39.353Z,18.17
2023-02-11T20:12:02.556Z,18.40
2023-02-11T20:15:26.531Z,18.92
2023-02-11T20:18:51.519Z,17.55
2023-02-11T20:22:15.233Z,17.35
2023-02-11T20:25:40.854Z,18.40
2023-02-11T20:29:07.153Z,17.67
2023-02-11T20:32:34.647Z,18.30
2023-02-11T20:36:04.320Z,19.75
2023-02-11T20:39:27.610Z,18.17
2023-02-11T20:42:50.470Z,16.63
2023-02-11T20:46:14.819Z,18.45
2023-02-11T20:49:43.826Z,19.75
2023-02-11T20:53:06.905Z,18.23
2023-02-11T20:56:32.868Z,20.13
2023-02-11T20:59:55.951Z,18.00
2023-02-11T21:03:19.323Z,20.13
2023-02-11T21:06:47.868Z,18.92
2023-02-11T21:10:13.404Z,20.25
2023-02-11T21:13:41.861Z,20.25
2023-02-11T21:17:05.049Z,19.65
2023-02-11T21:20:28.949Z,20.40
2023-02-11T21:23:55.562Z,20.75
2023-02-11T21:27:18.147Z,20.58
2023-02-11T21:30:41.286Z,19.23
2023-02-11T21:34:11.557Z,19.63
2023-02-11T21:37:33.788Z,20.92
2023-02-11T21:40:56.941Z,20.65
2023-02-11T21:44:24.491Z,20.33
2023-02-11T21:48:18.361Z,19.77
2023-02-11T21:51:42.568Z,18.52
2023-02-11T21:55:11.038Z,20.33
2023-02-11T21:58:35.350Z,19.88
2023-02-11T22:01:58.869Z,19.55
2023-02-11T22:05:21.078Z,20.42
2023-02-11T22:08:47.309Z,20.02
2023-02-11T22:12:16.453Z,19.10
2023-02-11T22:16:09.032Z,27.42
2023-02-11T22:19:45.391Z,23.27
2023-02-11T22:23:11.731Z,23.38
2023-02-11T22:27:02.721Z,22.97
2023-02-11T22:30:29.076Z,21.98
2023-02-11T22:33:55.800Z,22.15
2023-02-11T22:37:53.008Z,22.50
2023-02-11T22:42:04.706Z,23.55
2023-02-11T22:45:38.677Z,22.58
2023-02-11T22:49:27.649Z,19.88
2023-02-11T22:52:59.666Z,19.63
2023-02-11T22:56:33.693Z,22.90
2023-02-11T23:00:02.122Z,20.60
2023-02-11T23:03:41.632Z,21.42
2023-02-11T23:07:03.666Z,22.27
2023-02-11T23:10:34.059Z,21.65
2023-02-11T23:13:56.703Z,19.98
2023-02-11T23:17:19.621Z,20.50
2023-02-11T23:20:43.614Z,20.75
2023-02-11T23:24:11.088Z,21.80
2023-02-11T23:27:33.077Z,22.27
2023-02-11T23:30:55.627Z,21.48
2023-02-11T23:34:20.354Z,20.77
2023-02-11T23:37:42.369Z,20.08
2023-02-11T23:41:04.641Z,20.98
2023-02-11T23:44:27.211Z,21.15
2023-02-11T23:47:49.197Z,19.02
2023-02-11T23:51:11.329Z,21.25
2023-02-11T23:54:33.405Z,22.10
2023-02-11T23:57:55.669Z,20.33
